createdAt,value
2018-12-05T00:01:21.309Z,6.50
2018-12-05T00:03:55.044Z,6.40
2018-12-05T00:06:28.783Z,6.30
2018-12-05T00:09:02.419Z,6.30
2018-12-05T00:11:36.075Z,6.30
2018-12-05T00:14:09.672Z,6.30
2018-12-05T00:16:43.363Z,6.40
2018-12-05T00:19:17.144Z,6.40
2018-12-05T00:21:50.905Z,6.30
2018-12-05T00:24:24.601Z,6.30
2018-12-05T00:26:58.196Z,6.30
2018-12-05T00:29:31.814Z,6.20
2018-12-05T00:32:05.502Z,6.30
2018-12-05T00:34:39.072Z,6.30
2018-12-05T00:37:12.824Z,6.50
2018-12-05T00:39:48.072Z,6.50
2018-12-05T00:42:20.097Z,6.60
2018-12-05T00:44:53.834Z,6.70
2018-12-05T00:47:27.583Z,6.70
2018-12-05T00:50:01.180Z,6.70
2018-12-05T00:52:34.792Z,6.70
2018-12-05T00:55:08.397Z,6.70
2018-12-05T00:57:42.016Z,6.60
2018-12-05T01:00:15.660Z,6.60
2018-12-05T01:02:49.422Z,6.70
2018-12-05T01:05:23.039Z,6.70
2018-12-05T01:07:56.599Z,6.70
2018-12-05T01:10:30.235Z,6.70
2018-12-05T01:13:04.047Z,6.70
2018-12-05T01:15:38.338Z,6.80
2018-12-05T01:18:11.958Z,6.80
2018-12-05T01:20:46.379Z,6.90
2018-12-05T01:23:20.128Z,6.80
2018-12-05T01:25:53.704Z,6.90
2018-12-05T01:28:27.304Z,6.90
2018-12-05T01:31:01.808Z,6.90
2018-12-05T01:33:36.127Z,6.80
2018-12-05T01:36:09.797Z,6.80
2018-12-05T01:38:44.302Z,6.80
2018-12-05T01:41:18.002Z,6.80
2018-12-05T01:43:51.788Z,6.70
2018-12-05T01:46:25.385Z,6.70
2018-12-05T01:48:59.149Z,6.70
2018-12-05T01:51:32.956Z,6.70
2018-12-05T01:54:06.551Z,6.80
2018-12-05T01:56:40.115Z,6.70
2018-12-05T01:59:13.686Z,6.80
2018-12-05T02:01:47.360Z,6.70
2018-12-05T02:04:21.003Z,6.70
2018-12-05T02:06:54.596Z,6.80
2018-12-05T02:09:28.135Z,6.80
2018-12-05T02:12:01.700Z,6.70
2018-12-05T02:14:35.491Z,6.60
2018-12-05T02:17:09.036Z,6.50
2018-12-05T02:19:42.753Z,6.50
2018-12-05T02:22:16.281Z,6.60
2018-12-05T02:24:50.811Z,6.70
2018-12-05T02:27:24.341Z,6.70
2018-12-05T02:29:57.948Z,6.70
2018-12-05T02:32:31.706Z,6.70
2018-12-05T02:35:05.500Z,6.70
2018-12-05T02:37:39.114Z,6.60
2018-12-05T02:40:12.730Z,6.60
2018-12-05T02:42:46.466Z,6.60
2018-12-05T02:45:20.240Z,6.60
2018-12-05T02:47:53.851Z,6.50
2018-12-05T02:50:28.775Z,6.40
2018-12-05T02:53:02.473Z,6.30
2018-12-05T02:55:36.147Z,6.20
2018-12-05T02:58:09.898Z,6.20
2018-12-05T03:00:43.485Z,6.10
2018-12-05T03:03:17.316Z,6.00
2018-12-05T03:05:51.028Z,6.00
2018-12-05T03:08:24.608Z,6.10
2018-12-05T03:10:58.161Z,6.20
2018-12-05T03:13:31.708Z,6.20
2018-12-05T03:16:05.982Z,6.20
2018-12-05T03:18:39.545Z,6.20
2018-12-05T03:21:13.213Z,6.10
2018-12-05T03:23:46.872Z,6.10
2018-12-05T03:26:20.404Z,6.00
2018-12-05T03:28:54.016Z,5.90
2018-12-05T03:31:27.734Z,6.00
2018-12-05T03:34:02.113Z,6.10
2018-12-05T03:36:35.801Z,6.00
2018-12-05T03:39:09.339Z,6.10
2018-12-05T03:41:42.940Z,6.10
2018-12-05T03:44:16.609Z,6.20
2018-12-05T03:46:51.087Z,6.30
2018-12-05T03:49:24.952Z,6.30
2018-12-05T03:51:58.694Z,6.30
2018-12-05T03:54:33.167Z,6.30
2018-12-05T03:57:06.909Z,6.30
2018-12-05T03:59:40.473Z,6.20
2018-12-05T04:02:14.335Z,6.20
2018-12-05T04:04:48.843Z,6.20
2018-12-05T04:07:22.560Z,6.20
2018-12-05T04:09:56.376Z,6.30
2018-12-05T04:12:30.318Z,6.20
2018-12-05T04:15:04.133Z,6.10
2018-12-05T04:17:38.678Z,5.90
2018-12-05T04:20:12.565Z,5.90
2018-12-05T04:22:46.157Z,5.90
2018-12-05T04:25:19.991Z,6.00
2018-12-05T04:27:53.707Z,6.10
2018-12-05T04:30:27.445Z,6.20
2018-12-05T04:33:01.833Z,6.30
2018-12-05T04:35:35.434Z,6.20
2018-12-05T04:38:09.091Z,6.30
2018-12-05T04:40:43.629Z,6.30
2018-12-05T04:43:17.985Z,6.20
2018-12-05T04:45:51.645Z,6.20
2018-12-05T04:48:25.384Z,6.20
2018-12-05T04:51:00.011Z,6.20
2018-12-05T04:53:34.443Z,6.30
2018-12-05T04:56:08.102Z,6.30
2018-12-05T04:58:41.842Z,6.40
2018-12-05T05:01:15.541Z,6.40
2018-12-05T05:03:49.373Z,6.40
2018-12-05T05:06:23.077Z,6.40
2018-12-05T05:08:56.901Z,6.40
2018-12-05T05:11:31.464Z,6.40
2018-12-05T05:14:05.018Z,6.40
2018-12-05T05:16:38.606Z,6.50
2018-12-05T05:19:12.358Z,6.50
2018-12-05T05:21:45.998Z,6.60
2018-12-05T05:24:19.697Z,6.60
2018-12-05T05:26:54.003Z,6.70
2018-12-05T05:29:27.841Z,6.60
2018-12-05T05:32:03.516Z,6.50
2018-12-05T05:34:37.093Z,6.50
2018-12-05T05:37:10.893Z,6.50
2018-12-05T05:39:44.491Z,6.50
2018-12-05T05:42:18.211Z,6.50
2018-12-05T05:44:51.983Z,6.60
2018-12-05T05:47:26.300Z,6.60
2018-12-05T05:49:59.982Z,6.60
2018-12-05T05:52:33.675Z,6.60
2018-12-05T05:55:07.214Z,6.60
2018-12-05T05:57:40.952Z,6.50
2018-12-05T06:00:14.582Z,6.40
2018-12-05T06:02:48.296Z,6.40
2018-12-05T06:05:21.867Z,6.40
2018-12-05T06:07:55.374Z,6.40
2018-12-05T06:10:29.717Z,6.40
2018-12-05T06:13:03.273Z,6.40
2018-12-05T06:15:36.880Z,6.50
2018-12-05T06:18:10.432Z,6.40
2018-12-05T06:20:44.250Z,6.50
2018-12-05T06:23:17.894Z,6.50
2018-12-05T06:25:51.716Z,6.50
2018-12-05T06:28:25.667Z,6.40
2018-12-05T06:30:59.457Z,6.40
2018-12-05T06:33:33.998Z,6.60
2018-12-05T06:36:07.696Z,6.60
2018-12-05T06:38:41.405Z,6.80
2018-12-05T06:41:15.143Z,7.10
2018-12-05T06:43:49.629Z,7.30
2018-12-05T06:46:23.415Z,7.30
2018-12-05T06:48:57.288Z,7.20
2018-12-05T06:51:30.989Z,7.10
2018-12-05T06:54:04.520Z,7.10
2018-12-05T06:56:39.166Z,6.90
2018-12-05T06:59:13.474Z,6.90
2018-12-05T07:01:47.873Z,6.90
2018-12-05T07:04:21.488Z,6.80
2018-12-05T07:06:55.139Z,6.80
2018-12-05T07:09:30.093Z,6.80
2018-12-05T07:12:03.749Z,6.80
2018-12-05T07:20:44.853Z,6.60
2018-12-05T07:23:18.595Z,6.70
2018-12-05T07:25:52.228Z,6.70
2018-12-05T07:28:26.558Z,6.80
2018-12-05T07:31:00.212Z,6.80
2018-12-05T07:33:33.791Z,6.80
2018-12-05T07:36:07.610Z,6.80
2018-12-05T07:38:41.305Z,6.80
2018-12-05T07:41:15.192Z,6.80
2018-12-05T07:43:48.992Z,6.70
2018-12-05T07:46:22.619Z,6.60
2018-12-05T07:48:56.217Z,6.70
2018-12-05T07:51:30.722Z,6.90
2018-12-05T07:54:04.337Z,6.90
2018-12-05T07:56:38.060Z,7.00
2018-12-05T07:59:13.722Z,7.10
2018-12-05T08:01:47.729Z,7.20
2018-12-05T08:04:21.300Z,7.30
2018-12-05T08:06:55.733Z,7.40
2018-12-05T08:09:30.399Z,7.40
2018-12-05T08:12:04.195Z,7.40
2018-12-05T08:14:38.009Z,7.50
2018-12-05T08:17:11.585Z,7.60
2018-12-05T08:19:45.197Z,7.60
2018-12-05T08:22:18.818Z,7.60
2018-12-05T08:24:52.465Z,7.60
2018-12-05T08:27:26.037Z,7.60
2018-12-05T08:29:59.736Z,7.60
2018-12-05T08:32:33.455Z,7.60
2018-12-05T08:35:07.152Z,7.50
2018-12-05T08:37:41.010Z,7.50
2018-12-05T08:40:14.744Z,7.60
2018-12-05T08:42:49.215Z,7.70
2018-12-05T08:45:22.930Z,7.60
2018-12-05T08:47:56.540Z,7.70
2018-12-05T08:50:30.191Z,7.70
2018-12-05T08:53:04.835Z,7.70
2018-12-05T08:55:39.454Z,7.60
2018-12-05T08:58:13.124Z,7.60
2018-12-05T09:00:46.659Z,7.50
2018-12-05T09:03:20.461Z,7.50
2018-12-05T09:05:54.041Z,7.50
2018-12-05T09:08:29.392Z,7.70
2018-12-05T09:11:02.942Z,7.70
2018-12-05T09:13:36.686Z,7.90
2018-12-05T09:16:10.442Z,8.10
2018-12-05T09:18:44.116Z,8.20
2018-12-05T09:21:17.808Z,8.20
2018-12-05T09:23:51.560Z,8.20
2018-12-05T09:26:25.404Z,8.10
2018-12-05T09:28:58.995Z,8.10
2018-12-05T09:31:32.704Z,8.10
2018-12-05T09:34:06.410Z,8.10
2018-12-05T09:36:40.794Z,8.00
2018-12-05T09:39:14.373Z,8.00
2018-12-05T09:41:47.983Z,8.20
2018-12-05T09:44:22.579Z,8.50
2018-12-05T09:46:57.075Z,8.80
2018-12-05T09:49:30.751Z,8.80
2018-12-05T09:52:04.399Z,9.10
2018-12-05T09:54:38.863Z,9.20
2018-12-05T09:57:12.647Z,9.20
2018-12-05T09:59:46.295Z,9.40
2018-12-05T10:02:20.771Z,9.70
2018-12-05T10:04:54.491Z,9.70
2018-12-05T10:07:28.127Z,9.80
2018-12-05T10:10:01.933Z,9.80
2018-12-05T10:12:35.690Z,9.60
2018-12-05T10:15:10.033Z,9.30
2018-12-05T10:17:43.729Z,9.30
2018-12-05T10:20:17.358Z,9.30
2018-12-05T10:22:50.952Z,9.30
2018-12-05T10:25:24.605Z,9.20
2018-12-05T10:27:58.145Z,9.20
2018-12-05T10:30:32.503Z,9.20
2018-12-05T10:33:06.919Z,9.10
2018-12-05T10:35:40.651Z,9.10
2018-12-05T10:38:14.204Z,9.20
2018-12-05T10:40:47.773Z,9.40
2018-12-05T10:43:21.542Z,9.50
2018-12-05T10:45:55.312Z,9.70
2018-12-05T10:48:28.881Z,9.90
2018-12-05T10:51:02.699Z,10.00
2018-12-05T10:53:36.396Z,10.20
2018-12-05T10:56:09.916Z,10.40
2018-12-05T10:58:43.579Z,10.50
2018-12-05T11:01:23.452Z,10.20
2018-12-05T11:03:57.253Z,10.10
2018-12-05T11:06:37.404Z,9.80
2018-12-05T11:09:16.766Z,9.80
2018-12-05T11:12:10.086Z,9.70
2018-12-05T11:14:49.446Z,9.60
2018-12-05T11:17:28.794Z,9.60
2018-12-05T11:20:08.882Z,9.70
2018-12-05T11:22:48.179Z,9.70
2018-12-05T11:25:22.491Z,10.10
2018-12-05T11:27:56.099Z,10.10
2018-12-05T11:30:29.919Z,9.90
2018-12-05T11:33:03.539Z,9.90
2018-12-05T11:35:37.095Z,9.80
2018-12-05T11:38:10.729Z,9.90
2018-12-05T11:40:44.424Z,10.10
2018-12-05T11:43:18.123Z,10.00
2018-12-05T11:45:51.848Z,10.10
2018-12-05T11:48:25.591Z,10.30
2018-12-05T11:50:59.364Z,10.50
2018-12-05T11:53:32.885Z,10.60
2018-12-05T11:56:06.394Z,10.70
2018-12-05T11:58:40.148Z,10.60
2018-12-05T12:01:13.724Z,10.80
2018-12-05T12:03:47.292Z,10.80
2018-12-05T12:06:21.050Z,10.90
2018-12-05T12:08:54.801Z,10.90
2018-12-05T12:11:28.509Z,11.00
2018-12-05T12:14:02.936Z,10.90
2018-12-05T12:16:36.565Z,10.90
2018-12-05T12:19:11.071Z,10.70
2018-12-05T12:21:44.704Z,10.70
2018-12-05T12:24:18.426Z,10.90
2018-12-05T12:26:52.918Z,10.70
2018-12-05T12:29:26.456Z,10.70
2018-12-05T12:32:00.010Z,10.30
2018-12-05T12:34:33.663Z,10.30
2018-12-05T12:37:07.263Z,10.10
2018-12-05T12:39:40.933Z,10.10
2018-12-05T12:42:14.515Z,10.00
2018-12-05T12:44:48.227Z,10.00
2018-12-05T12:47:21.890Z,9.90
2018-12-05T12:49:56.255Z,9.90
2018-12-05T12:52:29.827Z,9.90
2018-12-05T12:55:04.143Z,10.10
2018-12-05T12:57:38.586Z,10.20
2018-12-05T13:00:13.010Z,10.30
2018-12-05T13:02:46.692Z,10.20
2018-12-05T13:05:20.350Z,10.30
2018-12-05T13:07:54.082Z,10.30
2018-12-05T13:10:27.809Z,10.30
2018-12-05T13:13:01.491Z,10.20
2018-12-05T13:15:35.253Z,10.10
2018-12-05T13:18:09.028Z,10.10
2018-12-05T13:20:42.627Z,9.90
2018-12-05T13:23:16.359Z,9.90
2018-12-05T13:25:50.107Z,9.90
2018-12-05T13:28:23.871Z,9.90
2018-12-05T13:30:57.542Z,10.00
2018-12-05T13:33:31.213Z,9.90
2018-12-05T13:36:05.684Z,9.90
2018-12-05T13:38:39.359Z,9.90
2018-12-05T13:41:13.811Z,9.90
2018-12-05T13:43:47.450Z,10.00
2018-12-05T13:46:21.124Z,10.00
2018-12-05T13:48:54.922Z,10.00
2018-12-05T13:51:28.681Z,10.00
2018-12-05T13:54:02.332Z,9.90
2018-12-05T13:56:37.536Z,9.80
2018-12-05T13:59:11.117Z,9.80
2018-12-05T14:01:44.651Z,9.80
2018-12-05T14:04:19.027Z,9.60
2018-12-05T14:06:52.623Z,9.60
2018-12-05T14:09:26.177Z,9.50
2018-12-05T14:11:59.871Z,9.40
2018-12-05T14:14:33.442Z,9.40
2018-12-05T14:17:07.820Z,9.30
2018-12-05T14:19:41.566Z,9.30
2018-12-05T14:22:15.111Z,9.30
2018-12-05T14:24:48.736Z,9.20
2018-12-05T14:27:23.032Z,9.20
2018-12-05T14:29:57.446Z,9.20
2018-12-05T14:32:31.219Z,9.20
2018-12-05T14:35:06.332Z,9.30
2018-12-05T14:37:40.042Z,9.30
2018-12-05T14:40:14.166Z,9.20
2018-12-05T14:42:47.951Z,9.20
2018-12-05T14:45:21.578Z,9.20
2018-12-05T14:47:55.933Z,9.30
2018-12-05T14:50:29.667Z,9.20
2018-12-05T14:53:03.298Z,9.30
2018-12-05T14:55:37.037Z,9.20
2018-12-05T14:58:11.344Z,9.20
2018-12-05T15:00:45.129Z,9.20
2018-12-05T15:03:18.703Z,9.20
2018-12-05T15:05:52.460Z,9.20
2018-12-05T15:08:25.983Z,9.20
2018-12-05T15:11:00.334Z,9.10
2018-12-05T15:13:34.222Z,9.10
2018-12-05T15:16:07.802Z,9.10
2018-12-05T15:18:41.417Z,9.10
2018-12-05T15:21:15.193Z,9.00
2018-12-05T15:23:48.935Z,8.90
2018-12-05T15:26:23.252Z,8.80
2018-12-05T15:28:56.963Z,8.80
2018-12-05T15:31:30.657Z,8.70
2018-12-05T15:34:04.191Z,8.70
2018-12-05T15:36:37.868Z,8.60
2018-12-05T15:39:11.599Z,8.60
2018-12-05T15:41:45.246Z,8.70
2018-12-05T15:44:19.593Z,8.60
2018-12-05T15:46:53.379Z,8.60
2018-12-05T15:49:27.155Z,8.60
2018-12-05T15:52:00.792Z,8.50
2018-12-05T15:54:35.792Z,8.40
2018-12-05T15:57:10.383Z,8.40
2018-12-05T15:59:43.786Z,8.40
2018-12-05T16:02:18.427Z,8.30
2018-12-05T16:04:52.075Z,8.30
2018-12-05T16:07:25.798Z,8.30
2018-12-05T16:09:59.428Z,8.30
2018-12-05T16:12:32.977Z,8.20
2018-12-05T16:15:07.493Z,8.30
2018-12-05T16:17:41.131Z,8.30
2018-12-05T16:20:14.785Z,8.30
2018-12-05T16:22:48.337Z,8.30
2018-12-05T16:25:21.910Z,8.20
2018-12-05T16:27:56.413Z,8.20
2018-12-05T16:30:30.809Z,8.30
2018-12-05T16:33:04.325Z,8.20
2018-12-05T16:35:38.018Z,8.20
2018-12-05T16:38:11.568Z,8.30
2018-12-05T16:40:46.937Z,8.40
2018-12-05T16:43:20.720Z,8.40
2018-12-05T16:45:54.454Z,8.40
2018-12-05T16:48:28.019Z,8.30
2018-12-05T16:51:01.636Z,8.30
2018-12-05T16:53:35.270Z,8.30
2018-12-05T16:56:08.835Z,8.30
2018-12-05T16:58:42.594Z,8.30
2018-12-05T17:01:16.969Z,8.30
2018-12-05T17:03:51.400Z,8.20
2018-12-05T17:06:25.038Z,8.20
2018-12-05T17:08:58.792Z,8.10
2018-12-05T17:11:33.204Z,8.10
2018-12-05T17:14:06.794Z,8.10
2018-12-05T17:16:40.390Z,8.10
2018-12-05T17:19:14.222Z,8.20
2018-12-05T17:21:47.952Z,8.20
2018-12-05T17:24:21.632Z,8.20
2018-12-05T17:26:55.238Z,8.20
2018-12-05T17:29:28.946Z,8.30
2018-12-05T17:32:03.298Z,8.30
2018-12-05T17:34:36.973Z,8.30
2018-12-05T17:37:10.729Z,8.20
2018-12-05T17:39:44.443Z,8.20
2018-12-05T17:42:18.019Z,8.30
2018-12-05T17:44:51.700Z,8.30
2018-12-05T17:47:26.216Z,8.20
2018-12-05T17:49:59.932Z,8.20
2018-12-05T17:52:33.665Z,8.20
2018-12-05T17:55:07.440Z,8.20
2018-12-05T17:57:41.863Z,8.10
2018-12-05T18:00:16.275Z,8.10
2018-12-05T18:02:49.803Z,8.10
2018-12-05T18:05:24.499Z,8.10
2018-12-05T18:07:58.066Z,8.10
2018-12-05T18:10:31.740Z,8.20
2018-12-05T18:13:05.405Z,8.10
2018-12-05T18:15:39.058Z,8.10
2018-12-05T18:18:12.828Z,8.10
2018-12-05T18:20:46.532Z,8.10
2018-12-05T18:23:20.138Z,8.10
2018-12-05T18:25:53.761Z,8.10
2018-12-05T18:28:28.063Z,8.10
2018-12-05T18:31:02.427Z,8.10
2018-12-05T18:33:36.274Z,8.10
2018-12-05T18:36:09.897Z,8.10
2018-12-05T18:38:43.616Z,8.10
2018-12-05T18:41:17.279Z,8.10
2018-12-05T18:43:50.823Z,8.10
2018-12-05T18:46:25.402Z,8.10
2018-12-05T18:48:59.130Z,8.10
2018-12-05T18:51:33.637Z,8.10
2018-12-05T18:54:08.623Z,8.10
2018-12-05T18:56:41.027Z,8.10
2018-12-05T18:59:15.484Z,8.00
2018-12-05T19:01:49.968Z,7.90
2018-12-05T19:04:24.422Z,8.00
2018-12-05T19:06:58.120Z,8.00
2018-12-05T19:09:32.878Z,8.00
2018-12-05T19:12:06.577Z,7.90
2018-12-05T19:14:45.207Z,7.90
2018-12-05T19:17:19.516Z,7.80
2018-12-05T19:19:53.964Z,7.80
2018-12-05T19:22:27.524Z,7.80
2018-12-05T19:25:02.096Z,7.90
2018-12-05T19:27:35.883Z,7.90
2018-12-05T19:30:09.438Z,7.90
2018-12-05T19:32:43.268Z,8.00
2018-12-05T19:35:17.108Z,8.00
2018-12-05T19:37:51.019Z,7.90
2018-12-05T19:40:24.732Z,7.90
2018-12-05T19:42:58.409Z,7.80
2018-12-05T19:45:32.110Z,7.80
2018-12-05T19:48:05.908Z,7.80
2018-12-05T19:50:39.629Z,7.80
2018-12-05T19:53:13.376Z,7.80
2018-12-05T19:55:47.155Z,7.80
2018-12-05T19:58:20.842Z,7.80
2018-12-05T20:00:54.614Z,7.80
2018-12-05T20:03:28.477Z,7.80
2018-12-05T20:06:02.113Z,7.80
2018-12-05T20:08:35.887Z,7.80
2018-12-05T20:11:10.229Z,7.70
2018-12-05T20:13:44.063Z,7.70
2018-12-05T20:16:18.400Z,7.70
2018-12-05T20:18:52.149Z,7.60
2018-12-05T20:21:25.888Z,7.60
2018-12-05T20:23:59.522Z,7.70
2018-12-05T20:26:33.179Z,7.70
2018-12-05T20:29:06.844Z,7.70
2018-12-05T20:31:40.729Z,7.70
2018-12-05T20:34:14.498Z,7.80
2018-12-05T20:36:48.037Z,7.80
2018-12-05T20:39:25.925Z,7.80
2018-12-05T20:41:57.120Z,7.90
2018-12-05T20:44:30.781Z,7.90
2018-12-05T20:47:04.519Z,7.90
2018-12-05T20:49:38.978Z,8.00
2018-12-05T20:52:12.605Z,8.00
2018-12-05T20:54:46.981Z,8.10
2018-12-05T20:57:20.988Z,8.10
2018-12-05T20:59:54.630Z,8.10
2018-12-05T21:02:28.239Z,8.10
2018-12-05T21:05:01.998Z,8.00
2018-12-05T21:07:35.526Z,8.00
2018-12-05T21:10:09.133Z,8.00
2018-12-05T21:12:43.649Z,7.90
2018-12-05T21:15:17.281Z,7.90
2018-12-05T21:17:50.897Z,7.90
2018-12-05T21:20:24.739Z,8.00
2018-12-05T21:22:58.426Z,8.00
2018-12-05T21:25:32.147Z,8.00
2018-12-05T21:28:05.902Z,8.00
2018-12-05T21:30:39.519Z,8.00
2018-12-05T21:33:13.209Z,8.00
2018-12-05T21:35:47.773Z,7.70
2018-12-05T21:38:22.164Z,7.60
2018-12-05T21:40:55.910Z,7.60
2018-12-05T21:43:29.606Z,7.60
2018-12-05T21:46:03.397Z,7.60
2018-12-05T21:48:37.037Z,7.60
2018-12-05T21:51:10.809Z,7.70
2018-12-05T21:53:45.256Z,7.80
2018-12-05T21:56:18.858Z,7.70
2018-12-05T21:58:52.471Z,7.80
2018-12-05T22:01:26.967Z,7.80
2018-12-05T22:04:00.712Z,7.80
2018-12-05T22:06:34.345Z,7.80
2018-12-05T22:09:09.501Z,7.80
2018-12-05T22:11:43.032Z,7.70
2018-12-05T22:14:17.336Z,7.60
2018-12-05T22:16:51.725Z,7.60
2018-12-05T22:19:25.417Z,7.60
2018-12-05T22:21:59.879Z,7.50
2018-12-05T22:24:33.551Z,7.50
2018-12-05T22:27:07.151Z,7.50
2018-12-05T22:29:41.601Z,7.60
2018-12-05T22:32:15.867Z,7.60
2018-12-05T22:34:49.438Z,7.60
2018-12-05T22:37:23.948Z,7.70
2018-12-05T22:39:57.512Z,7.60
2018-12-05T22:42:31.054Z,7.70
2018-12-05T22:45:04.592Z,7.70
2018-12-05T22:47:38.386Z,7.70
2018-12-05T22:50:12.161Z,7.70
2018-12-05T22:52:46.506Z,7.60
2018-12-05T22:55:20.853Z,7.60
2018-12-05T22:57:54.535Z,7.60
2018-12-05T23:00:28.238Z,7.60
2018-12-05T23:03:02.032Z,7.60
2018-12-05T23:05:35.763Z,7.50
2018-12-05T23:08:09.315Z,7.60
2018-12-05T23:10:43.790Z,7.60
2018-12-05T23:13:17.342Z,7.50
2018-12-05T23:15:50.853Z,7.60
2018-12-05T23:18:25.146Z,7.50
2018-12-05T23:20:59.617Z,7.50
2018-12-05T23:23:33.171Z,7.50
2018-12-05T23:26:06.749Z,7.50
2018-12-05T23:28:40.268Z,7.50
2018-12-05T23:31:14.787Z,7.70
2018-12-05T23:33:48.450Z,7.70
2018-12-05T23:36:21.992Z,7.80
2018-12-05T23:38:55.621Z,7.80
2018-12-05T23:41:29.141Z,7.80
2018-12-05T23:44:02.661Z,7.70
2018-12-05T23:46:36.235Z,7.70
2018-12-05T23:49:09.999Z,7.60
2018-12-05T23:51:43.663Z,7.60
2018-12-05T23:54:18.017Z,7.80
2018-12-05T23:56:52.438Z,7.80
2018-12-05T23:59:26.952Z,7.80
